sensor_id;sensor_type;location;lat;lon;timestamp;temperature;humidity
37356;DHT22;48747;50.250;18.848;2023-06-04T00:01:53;12.10;72.00
37356;DHT22;48747;50.250;18.848;2023-06-04T00:03:57;12.00;70.80
37356;DHT22;48747;50.250;18.848;2023-06-04T00:06:00;12.00;71.80
37356;DHT22;48747;50.250;18.848;2023-06-04T00:08:04;12.00;71.90
37356;DHT22;48747;50.250;18.848;2023-06-04T00:10:07;11.90;72.70
37356;DHT22;48747;50.250;18.848;2023-06-04T00:12:10;11.90;72.60
37356;DHT22;48747;50.250;18.848;2023-06-04T00:14:14;11.80;72.50
37356;DHT22;48747;50.250;18.848;2023-06-04T00:16:17;11.80;73.20
37356;DHT22;48747;50.250;18.848;2023-06-04T00:18:20;11.70;73.70
37356;DHT22;48747;50.250;18.848;2023-06-04T00:20:23;11.70;73.90
37356;DHT22;48747;50.250;18.848;2023-06-04T00:22:26;11.70;74.50
37356;DHT22;48747;50.250;18.848;2023-06-04T00:24:29;11.70;74.50
37356;DHT22;48747;50.250;18.848;2023-06-04T00:26:33;11.70;75.00
37356;DHT22;48747;50.250;18.848;2023-06-04T00:28:36;11.70;74.70
37356;DHT22;48747;50.250;18.848;2023-06-04T00:30:39;11.70;74.90
37356;DHT22;48747;50.250;18.848;2023-06-04T00:32:42;11.80;74.90
37356;DHT22;48747;50.250;18.848;2023-06-04T00:34:50;11.70;74.80
37356;DHT22;48747;50.250;18.848;2023-06-04T00:36:53;11.60;75.40
37356;DHT22;48747;50.250;18.848;2023-06-04T00:38:58;11.50;75.60
37356;DHT22;48747;50.250;18.848;2023-06-04T00:41:01;11.50;76.10
37356;DHT22;48747;50.250;18.848;2023-06-04T00:43:04;11.50;76.90
37356;DHT22;48747;50.250;18.848;2023-06-04T00:45:08;11.50;76.80
37356;DHT22;48747;50.250;18.848;2023-06-04T00:47:15;11.40;77.70
37356;DHT22;48747;50.250;18.848;2023-06-04T00:49:18;11.30;77.20
37356;DHT22;48747;50.250;18.848;2023-06-04T00:51:22;11.30;78.20
37356;DHT22;48747;50.250;18.848;2023-06-04T00:53:25;11.30;78.60
37356;DHT22;48747;50.250;18.848;2023-06-04T00:55:34;11.30;79.60
37356;DHT22;48747;50.250;18.848;2023-06-04T00:57:34;11.30;79.30
37356;DHT22;48747;50.250;18.848;2023-06-04T00:59:39;11.30;80.00
37356;DHT22;48747;50.250;18.848;2023-06-04T01:01:48;11.20;79.40
37356;DHT22;48747;50.250;18.848;2023-06-04T01:03:52;11.30;79.60
37356;DHT22;48747;50.250;18.848;2023-06-04T01:06:07;11.30;80.80
37356;DHT22;48747;50.250;18.848;2023-06-04T01:08:09;11.30;80.40
37356;DHT22;48747;50.250;18.848;2023-06-04T01:10:14;11.20;80.50
37356;DHT22;48747;50.250;18.848;2023-06-04T01:12:17;11.20;81.80
37356;DHT22;48747;50.250;18.848;2023-06-04T01:14:20;11.10;81.60
37356;DHT22;48747;50.250;18.848;2023-06-04T01:16:27;11.10;82.60
37356;DHT22;48747;50.250;18.848;2023-06-04T01:18:32;11.00;81.90
37356;DHT22;48747;50.250;18.848;2023-06-04T01:20:43;11.10;83.00
37356;DHT22;48747;50.250;18.848;2023-06-04T01:25:03;11.00;83.70
37356;DHT22;48747;50.250;18.848;2023-06-04T01:27:07;11.10;83.30
37356;DHT22;48747;50.250;18.848;2023-06-04T01:29:10;11.10;83.60
37356;DHT22;48747;50.250;18.848;2023-06-04T01:31:14;11.00;83.50
37356;DHT22;48747;50.250;18.848;2023-06-04T01:33:19;11.00;83.70
37356;DHT22;48747;50.250;18.848;2023-06-04T01:35:23;11.00;83.80
37356;DHT22;48747;50.250;18.848;2023-06-04T01:37:26;11.00;84.80
37356;DHT22;48747;50.250;18.848;2023-06-04T01:39:29;11.00;84.60
37356;DHT22;48747;50.250;18.848;2023-06-04T01:41:32;10.90;85.00
37356;DHT22;48747;50.250;18.848;2023-06-04T01:43:35;10.80;85.40
37356;DHT22;48747;50.250;18.848;2023-06-04T01:45:38;10.80;87.60
37356;DHT22;48747;50.250;18.848;2023-06-04T01:47:41;10.70;86.80
37356;DHT22;48747;50.250;18.848;2023-06-04T01:49:44;10.70;87.50
37356;DHT22;48747;50.250;18.848;2023-06-04T01:51:47;10.60;88.60
37356;DHT22;48747;50.250;18.848;2023-06-04T01:53:50;10.60;89.60
37356;DHT22;48747;50.250;18.848;2023-06-04T01:55:53;10.80;89.20
37356;DHT22;48747;50.250;18.848;2023-06-04T01:57:58;10.80;88.70
37356;DHT22;48747;50.250;18.848;2023-06-04T02:00:03;10.80;89.40
37356;DHT22;48747;50.250;18.848;2023-06-04T02:02:07;10.90;88.60
37356;DHT22;48747;50.250;18.848;2023-06-04T02:04:10;11.00;88.70
37356;DHT22;48747;50.250;18.848;2023-06-04T02:06:13;10.90;88.60
37356;DHT22;48747;50.250;18.848;2023-06-04T02:08:17;10.80;89.70
37356;DHT22;48747;50.250;18.848;2023-06-04T02:10:22;10.80;89.60
37356;DHT22;48747;50.250;18.848;2023-06-04T02:12:25;10.70;89.80
37356;DHT22;48747;50.250;18.848;2023-06-04T02:14:28;10.70;90.10
37356;DHT22;48747;50.250;18.848;2023-06-04T02:16:31;10.60;90.40
37356;DHT22;48747;50.250;18.848;2023-06-04T02:18:34;10.60;90.80
37356;DHT22;48747;50.250;18.848;2023-06-04T02:20:37;10.70;90.70
37356;DHT22;48747;50.250;18.848;2023-06-04T02:22:40;10.70;90.60
37356;DHT22;48747;50.250;18.848;2023-06-04T02:24:43;10.60;90.40
37356;DHT22;48747;50.250;18.848;2023-06-04T02:26:46;10.60;90.70
37356;DHT22;48747;50.250;18.848;2023-06-04T02:28:49;10.50;91.10
37356;DHT22;48747;50.250;18.848;2023-06-04T02:30:52;10.60;91.30
37356;DHT22;48747;50.250;18.848;2023-06-04T02:32:56;10.60;91.40
37356;DHT22;48747;50.250;18.848;2023-06-04T02:34:59;10.50;91.80
37356;DHT22;48747;50.250;18.848;2023-06-04T02:37:02;10.50;91.80
37356;DHT22;48747;50.250;18.848;2023-06-04T02:39:06;10.50;91.80
37356;DHT22;48747;50.250;18.848;2023-06-04T02:41:09;10.40;92.40
37356;DHT22;48747;50.250;18.848;2023-06-04T02:43:13;10.50;92.90
37356;DHT22;48747;50.250;18.848;2023-06-04T02:45:16;10.50;92.20
37356;DHT22;48747;50.250;18.848;2023-06-04T02:47:19;10.60;92.30
37356;DHT22;48747;50.250;18.848;2023-06-04T02:49:22;10.60;92.40
37356;DHT22;48747;50.250;18.848;2023-06-04T02:51:25;10.50;92.30
37356;DHT22;48747;50.250;18.848;2023-06-04T02:53:28;10.50;92.80
37356;DHT22;48747;50.250;18.848;2023-06-04T02:55:31;10.50;93.00
37356;DHT22;48747;50.250;18.848;2023-06-04T02:57:34;10.40;92.90
37356;DHT22;48747;50.250;18.848;2023-06-04T02:59:37;10.50;92.90
37356;DHT22;48747;50.250;18.848;2023-06-04T03:01:41;10.50;93.10
37356;DHT22;48747;50.250;18.848;2023-06-04T03:03:44;10.50;92.90
37356;DHT22;48747;50.250;18.848;2023-06-04T03:05:47;10.60;93.00
37356;DHT22;48747;50.250;18.848;2023-06-04T03:07:51;10.50;93.20
37356;DHT22;48747;50.250;18.848;2023-06-04T03:09:55;10.60;93.40
37356;DHT22;48747;50.250;18.848;2023-06-04T03:11:59;10.60;93.30
37356;DHT22;48747;50.250;18.848;2023-06-04T03:14:03;10.60;93.10
37356;DHT22;48747;50.250;18.848;2023-06-04T03:16:07;10.70;93.40
37356;DHT22;48747;50.250;18.848;2023-06-04T03:18:12;10.70;93.10
37356;DHT22;48747;50.250;18.848;2023-06-04T03:20:16;10.70;92.90
37356;DHT22;48747;50.250;18.848;2023-06-04T03:22:19;10.70;93.10
37356;DHT22;48747;50.250;18.848;2023-06-04T03:24:22;10.70;93.30
37356;DHT22;48747;50.250;18.848;2023-06-04T03:26:25;10.70;93.10
37356;DHT22;48747;50.250;18.848;2023-06-04T03:28:29;10.70;93.00
37356;DHT22;48747;50.250;18.848;2023-06-04T03:30:31;10.60;93.80
37356;DHT22;48747;50.250;18.848;2023-06-04T03:32:35;10.60;93.60
37356;DHT22;48747;50.250;18.848;2023-06-04T03:34:38;10.60;93.70
37356;DHT22;48747;50.250;18.848;2023-06-04T03:36:41;10.60;93.90
37356;DHT22;48747;50.250;18.848;2023-06-04T03:38:45;10.60;94.00
37356;DHT22;48747;50.250;18.848;2023-06-04T03:40:49;10.80;94.20
37356;DHT22;48747;50.250;18.848;2023-06-04T03:42:52;10.80;94.30
37356;DHT22;48747;50.250;18.848;2023-06-04T03:44:55;11.00;93.50
37356;DHT22;48747;50.250;18.848;2023-06-04T03:47:00;11.10;92.90
37356;DHT22;48747;50.250;18.848;2023-06-04T03:49:03;11.20;92.80
37356;DHT22;48747;50.250;18.848;2023-06-04T03:51:06;11.20;92.80
37356;DHT22;48747;50.250;18.848;2023-06-04T03:53:09;11.10;92.40
37356;DHT22;48747;50.250;18.848;2023-06-04T03:55:12;11.20;92.70
37356;DHT22;48747;50.250;18.848;2023-06-04T03:57:15;11.30;92.40
37356;DHT22;48747;50.250;18.848;2023-06-04T03:59:18;11.30;92.50
37356;DHT22;48747;50.250;18.848;2023-06-04T04:01:21;11.30;92.20
37356;DHT22;48747;50.250;18.848;2023-06-04T04:03:26;11.40;92.60
37356;DHT22;48747;50.250;18.848;2023-06-04T04:05:31;11.40;92.40
37356;DHT22;48747;50.250;18.848;2023-06-04T04:07:34;11.60;92.50
37356;DHT22;48747;50.250;18.848;2023-06-04T04:09:38;11.70;91.70
37356;DHT22;48747;50.250;18.848;2023-06-04T04:11:41;11.70;91.10
37356;DHT22;48747;50.250;18.848;2023-06-04T04:13:47;11.80;91.30
37356;DHT22;48747;50.250;18.848;2023-06-04T04:15:51;11.90;91.10
37356;DHT22;48747;50.250;18.848;2023-06-04T04:17:55;12.00;90.70
37356;DHT22;48747;50.250;18.848;2023-06-04T04:19:58;12.00;90.30
37356;DHT22;48747;50.250;18.848;2023-06-04T04:22:01;12.10;90.20
37356;DHT22;48747;50.250;18.848;2023-06-04T04:24:05;12.10;89.90
37356;DHT22;48747;50.250;18.848;2023-06-04T04:26:09;12.10;90.20
37356;DHT22;48747;50.250;18.848;2023-06-04T04:28:16;12.20;90.20
37356;DHT22;48747;50.250;18.848;2023-06-04T04:30:21;12.20;89.40
37356;DHT22;48747;50.250;18.848;2023-06-04T04:32:24;12.30;89.70
37356;DHT22;48747;50.250;18.848;2023-06-04T04:34:28;12.50;89.30
37356;DHT22;48747;50.250;18.848;2023-06-04T04:36:33;12.50;89.10
37356;DHT22;48747;50.250;18.848;2023-06-04T04:38:38;12.60;86.70
37356;DHT22;48747;50.250;18.848;2023-06-04T04:40:41;12.70;86.90
37356;DHT22;48747;50.250;18.848;2023-06-04T04:42:44;12.70;86.40
37356;DHT22;48747;50.250;18.848;2023-06-04T04:44:48;12.80;86.10
37356;DHT22;48747;50.250;18.848;2023-06-04T04:46:52;12.90;87.20
37356;DHT22;48747;50.250;18.848;2023-06-04T04:48:55;13.00;85.60
37356;DHT22;48747;50.250;18.848;2023-06-04T04:50:58;13.10;85.60
37356;DHT22;48747;50.250;18.848;2023-06-04T04:53:01;13.10;85.30
37356;DHT22;48747;50.250;18.848;2023-06-04T04:55:04;13.20;84.70
37356;DHT22;48747;50.250;18.848;2023-06-04T04:57:08;13.30;84.70
37356;DHT22;48747;50.250;18.848;2023-06-04T04:59:11;13.30;83.70
37356;DHT22;48747;50.250;18.848;2023-06-04T05:01:14;13.40;82.60
37356;DHT22;48747;50.250;18.848;2023-06-04T05:03:17;13.50;82.80
37356;DHT22;48747;50.250;18.848;2023-06-04T05:05:20;13.50;82.20
37356;DHT22;48747;50.250;18.848;2023-06-04T05:07:23;13.60;82.30
37356;DHT22;48747;50.250;18.848;2023-06-04T05:09:28;13.60;81.50
37356;DHT22;48747;50.250;18.848;2023-06-04T05:11:31;13.70;81.60
37356;DHT22;48747;50.250;18.848;2023-06-04T05:13:37;13.90;81.00
37356;DHT22;48747;50.250;18.848;2023-06-04T05:15:40;14.00;80.50
37356;DHT22;48747;50.250;18.848;2023-06-04T05:17:44;14.10;80.00
37356;DHT22;48747;50.250;18.848;2023-06-04T05:19:50;14.20;80.50
37356;DHT22;48747;50.250;18.848;2023-06-04T05:21:54;14.30;78.50
37356;DHT22;48747;50.250;18.848;2023-06-04T05:23:57;14.40;77.50
37356;DHT22;48747;50.250;18.848;2023-06-04T05:26:03;14.40;75.50
37356;DHT22;48747;50.250;18.848;2023-06-04T05:28:06;14.50;75.40
37356;DHT22;48747;50.250;18.848;2023-06-04T05:30:10;14.50;74.20
37356;DHT22;48747;50.250;18.848;2023-06-04T05:32:13;14.50;76.10
37356;DHT22;48747;50.250;18.848;2023-06-04T05:34:18;14.60;74.20
37356;DHT22;48747;50.250;18.848;2023-06-04T05:36:23;14.70;74.30
37356;DHT22;48747;50.250;18.848;2023-06-04T05:38:32;14.70;74.70
37356;DHT22;48747;50.250;18.848;2023-06-04T05:40:32;14.80;73.80
37356;DHT22;48747;50.250;18.848;2023-06-04T05:42:36;14.80;73.60
37356;DHT22;48747;50.250;18.848;2023-06-04T05:44:39;14.90;72.60
37356;DHT22;48747;50.250;18.848;2023-06-04T05:46:42;14.90;71.80
37356;DHT22;48747;50.250;18.848;2023-06-04T05:48:45;14.90;72.50
37356;DHT22;48747;50.250;18.848;2023-06-04T05:50:48;15.00;72.60
37356;DHT22;48747;50.250;18.848;2023-06-04T05:52:52;15.00;72.00
37356;DHT22;48747;50.250;18.848;2023-06-04T05:54:55;15.00;72.60
37356;DHT22;48747;50.250;18.848;2023-06-04T05:56:59;15.20;72.20
37356;DHT22;48747;50.250;18.848;2023-06-04T05:59:03;15.20;71.20
37356;DHT22;48747;50.250;18.848;2023-06-04T06:01:06;15.20;71.20
37356;DHT22;48747;50.250;18.848;2023-06-04T06:03:09;15.30;71.40
37356;DHT22;48747;50.250;18.848;2023-06-04T06:05:12;15.40;71.90
37356;DHT22;48747;50.250;18.848;2023-06-04T06:07:15;15.50;70.10
37356;DHT22;48747;50.250;18.848;2023-06-04T06:09:19;15.60;67.90
37356;DHT22;48747;50.250;18.848;2023-06-04T06:11:24;15.50;68.20
37356;DHT22;48747;50.250;18.848;2023-06-04T06:13:29;15.50;68.20
37356;DHT22;48747;50.250;18.848;2023-06-04T06:15:32;15.50;67.90
37356;DHT22;48747;50.250;18.848;2023-06-04T06:17:37;15.50;69.10
37356;DHT22;48747;50.250;18.848;2023-06-04T06:19:42;15.70;69.50
37356;DHT22;48747;50.250;18.848;2023-06-04T06:21:45;15.90;67.90
37356;DHT22;48747;50.250;18.848;2023-06-04T06:23:48;16.00;68.20
37356;DHT22;48747;50.250;18.848;2023-06-04T06:25:51;16.10;67.00
37356;DHT22;48747;50.250;18.848;2023-06-04T06:27:58;16.20;68.20
37356;DHT22;48747;50.250;18.848;2023-06-04T06:30:02;16.30;67.30
37356;DHT22;48747;50.250;18.848;2023-06-04T06:32:05;16.40;65.20
37356;DHT22;48747;50.250;18.848;2023-06-04T06:34:08;16.40;65.30
37356;DHT22;48747;50.250;18.848;2023-06-04T06:36:17;16.30;65.80
37356;DHT22;48747;50.250;18.848;2023-06-04T06:38:21;16.40;65.90
37356;DHT22;48747;50.250;18.848;2023-06-04T06:40:24;16.50;64.50
37356;DHT22;48747;50.250;18.848;2023-06-04T06:42:32;16.50;64.80
37356;DHT22;48747;50.250;18.848;2023-06-04T06:44:34;16.60;65.30
37356;DHT22;48747;50.250;18.848;2023-06-04T06:46:42;16.70;65.80
37356;DHT22;48747;50.250;18.848;2023-06-04T06:48:43;16.80;64.30
37356;DHT22;48747;50.250;18.848;2023-06-04T06:50:47;16.90;62.90
37356;DHT22;48747;50.250;18.848;2023-06-04T06:52:50;16.90;63.20
37356;DHT22;48747;50.250;18.848;2023-06-04T06:54:53;16.90;63.70
37356;DHT22;48747;50.250;18.848;2023-06-04T06:56:56;16.90;64.50
37356;DHT22;48747;50.250;18.848;2023-06-04T06:59:01;17.10;61.20
37356;DHT22;48747;50.250;18.848;2023-06-04T07:01:04;17.20;60.60
37356;DHT22;48747;50.250;18.848;2023-06-04T07:03:07;17.20;60.60
37356;DHT22;48747;50.250;18.848;2023-06-04T07:05:17;17.20;61.70
37356;DHT22;48747;50.250;18.848;2023-06-04T07:07:17;17.30;60.80
37356;DHT22;48747;50.250;18.848;2023-06-04T07:09:20;17.40;59.80
37356;DHT22;48747;50.250;18.848;2023-06-04T07:11:23;17.40;59.80
37356;DHT22;48747;50.250;18.848;2023-06-04T07:13:28;17.40;61.00
37356;DHT22;48747;50.250;18.848;2023-06-04T07:15:32;17.50;59.80
37356;DHT22;48747;50.250;18.848;2023-06-04T07:17:36;17.60;58.60
37356;DHT22;48747;50.250;18.848;2023-06-04T07:19:39;17.70;58.40
37356;DHT22;48747;50.250;18.848;2023-06-04T07:21:42;17.80;58.50
37356;DHT22;48747;50.250;18.848;2023-06-04T07:23:45;17.90;57.20
37356;DHT22;48747;50.250;18.848;2023-06-04T07:25:50;18.00;56.80
37356;DHT22;48747;50.250;18.848;2023-06-04T07:27:53;18.00;55.30
37356;DHT22;48747;50.250;18.848;2023-06-04T07:29:58;18.10;55.10
37356;DHT22;48747;50.250;18.848;2023-06-04T07:32:01;18.10;55.60
37356;DHT22;48747;50.250;18.848;2023-06-04T07:34:04;18.20;55.70
37356;DHT22;48747;50.250;18.848;2023-06-04T07:36:07;18.40;55.60
37356;DHT22;48747;50.250;18.848;2023-06-04T07:38:10;18.50;53.40
37356;DHT22;48747;50.250;18.848;2023-06-04T07:40:13;18.50;53.50
37356;DHT22;48747;50.250;18.848;2023-06-04T07:42:16;18.60;53.70
37356;DHT22;48747;50.250;18.848;2023-06-04T07:44:21;18.70;53.80
37356;DHT22;48747;50.250;18.848;2023-06-04T07:46:32;18.80;52.50
37356;DHT22;48747;50.250;18.848;2023-06-04T07:48:32;18.80;51.90
37356;DHT22;48747;50.250;18.848;2023-06-04T07:50:37;18.90;52.40
37356;DHT22;48747;50.250;18.848;2023-06-04T07:52:41;18.90;52.20
37356;DHT22;48747;50.250;18.848;2023-06-04T07:54:45;18.80;53.60
37356;DHT22;48747;50.250;18.848;2023-06-04T07:56:48;19.00;52.60
37356;DHT22;48747;50.250;18.848;2023-06-04T07:58:53;19.10;51.90
37356;DHT22;48747;50.250;18.848;2023-06-04T08:01:10;19.20;50.80
37356;DHT22;48747;50.250;18.848;2023-06-04T08:03:02;19.30;52.30
37356;DHT22;48747;50.250;18.848;2023-06-04T08:05:15;19.30;50.00
37356;DHT22;48747;50.250;18.848;2023-06-04T08:07:13;19.20;51.30
37356;DHT22;48747;50.250;18.848;2023-06-04T08:09:16;19.20;52.30
37356;DHT22;48747;50.250;18.848;2023-06-04T08:11:19;19.30;51.60
37356;DHT22;48747;50.250;18.848;2023-06-04T08:13:26;19.40;51.20
37356;DHT22;48747;50.250;18.848;2023-06-04T08:15:31;19.30;50.00
37356;DHT22;48747;50.250;18.848;2023-06-04T08:17:35;19.10;50.70
37356;DHT22;48747;50.250;18.848;2023-06-04T08:19:38;19.20;52.00
37356;DHT22;48747;50.250;18.848;2023-06-04T08:21:41;19.20;52.60
37356;DHT22;48747;50.250;18.848;2023-06-04T08:23:44;19.30;50.90
37356;DHT22;48747;50.250;18.848;2023-06-04T08:25:47;19.40;51.80
37356;DHT22;48747;50.250;18.848;2023-06-04T08:27:50;19.60;51.60
37356;DHT22;48747;50.250;18.848;2023-06-04T08:29:53;19.80;51.60
37356;DHT22;48747;50.250;18.848;2023-06-04T08:31:57;20.00;50.80
37356;DHT22;48747;50.250;18.848;2023-06-04T08:34:05;20.00;50.90
37356;DHT22;48747;50.250;18.848;2023-06-04T08:36:10;20.00;51.20
37356;DHT22;48747;50.250;18.848;2023-06-04T08:38:13;20.20;52.40
37356;DHT22;48747;50.250;18.848;2023-06-04T08:40:19;20.20;50.10
37356;DHT22;48747;50.250;18.848;2023-06-04T08:42:31;20.10;50.00
37356;DHT22;48747;50.250;18.848;2023-06-04T08:44:37;20.00;51.20
37356;DHT22;48747;50.250;18.848;2023-06-04T08:46:41;20.20;51.70
37356;DHT22;48747;50.250;18.848;2023-06-04T08:48:48;20.20;50.30
37356;DHT22;48747;50.250;18.848;2023-06-04T08:50:52;20.20;50.80
37356;DHT22;48747;50.250;18.848;2023-06-04T08:52:56;20.10;49.10
37356;DHT22;48747;50.250;18.848;2023-06-04T08:55:00;20.10;50.20
37356;DHT22;48747;50.250;18.848;2023-06-04T08:57:04;20.10;50.40
37356;DHT22;48747;50.250;18.848;2023-06-04T08:59:09;20.30;50.10
37356;DHT22;48747;50.250;18.848;2023-06-04T09:01:14;20.40;49.80
37356;DHT22;48747;50.250;18.848;2023-06-04T09:03:17;20.40;48.50
37356;DHT22;48747;50.250;18.848;2023-06-04T09:05:22;20.40;50.00
37356;DHT22;48747;50.250;18.848;2023-06-04T09:07:26;20.40;49.30
37356;DHT22;48747;50.250;18.848;2023-06-04T09:09:29;20.30;50.40
37356;DHT22;48747;50.250;18.848;2023-06-04T09:11:41;20.40;49.90
37356;DHT22;48747;50.250;18.848;2023-06-04T09:13:45;20.60;49.90
37356;DHT22;48747;50.250;18.848;2023-06-04T09:16:01;20.70;48.80
37356;DHT22;48747;50.250;18.848;2023-06-04T09:18:04;20.90;50.50
37356;DHT22;48747;50.250;18.848;2023-06-04T09:20:08;21.10;49.40
37356;DHT22;48747;50.250;18.848;2023-06-04T09:22:12;21.20;48.70
37356;DHT22;48747;50.250;18.848;2023-06-04T09:24:16;21.10;48.20
37356;DHT22;48747;50.250;18.848;2023-06-04T09:26:19;21.10;47.90
37356;DHT22;48747;50.250;18.848;2023-06-04T09:28:23;21.30;48.70
37356;DHT22;48747;50.250;18.848;2023-06-04T09:30:28;21.30;46.50
37356;DHT22;48747;50.250;18.848;2023-06-04T09:32:32;21.10;47.50
37356;DHT22;48747;50.250;18.848;2023-06-04T09:34:36;21.30;47.50
37356;DHT22;48747;50.250;18.848;2023-06-04T09:36:40;21.40;47.40
37356;DHT22;48747;50.250;18.848;2023-06-04T09:38:43;21.40;48.00
37356;DHT22;48747;50.250;18.848;2023-06-04T09:40:47;21.50;46.10
37356;DHT22;48747;50.250;18.848;2023-06-04T09:42:52;21.60;47.70
37356;DHT22;48747;50.250;18.848;2023-06-04T09:44:58;21.60;48.00
37356;DHT22;48747;50.250;18.848;2023-06-04T09:47:02;21.70;45.60
37356;DHT22;48747;50.250;18.848;2023-06-04T09:49:06;21.80;47.80
37356;DHT22;48747;50.250;18.848;2023-06-04T09:51:14;21.90;48.00
37356;DHT22;48747;50.250;18.848;2023-06-04T09:53:24;22.10;47.30
37356;DHT22;48747;50.250;18.848;2023-06-04T09:55:26;22.30;46.50
37356;DHT22;48747;50.250;18.848;2023-06-04T09:57:32;22.30;46.00
37356;DHT22;48747;50.250;18.848;2023-06-04T09:59:38;22.40;44.80
37356;DHT22;48747;50.250;18.848;2023-06-04T10:01:42;22.40;44.00
37356;DHT22;48747;50.250;18.848;2023-06-04T10:03:48;22.50;44.30
37356;DHT22;48747;50.250;18.848;2023-06-04T10:06:02;22.50;45.70
37356;DHT22;48747;50.250;18.848;2023-06-04T10:08:02;22.40;45.30
37356;DHT22;48747;50.250;18.848;2023-06-04T10:10:15;22.40;45.70
37356;DHT22;48747;50.250;18.848;2023-06-04T10:12:17;22.50;44.30
37356;DHT22;48747;50.250;18.848;2023-06-04T10:14:35;22.50;45.00
37356;DHT22;48747;50.250;18.848;2023-06-04T10:16:44;22.50;46.00
37356;DHT22;48747;50.250;18.848;2023-06-04T10:18:48;22.40;45.10
37356;DHT22;48747;50.250;18.848;2023-06-04T10:20:55;22.30;44.00
37356;DHT22;48747;50.250;18.848;2023-06-04T10:22:59;22.30;45.30
37356;DHT22;48747;50.250;18.848;2023-06-04T10:25:04;22.40;46.40
37356;DHT22;48747;50.250;18.848;2023-06-04T10:27:07;22.60;44.90
37356;DHT22;48747;50.250;18.848;2023-06-04T10:29:13;22.70;45.50
37356;DHT22;48747;50.250;18.848;2023-06-04T10:31:17;22.80;43.50
37356;DHT22;48747;50.250;18.848;2023-06-04T10:33:21;22.80;44.00
37356;DHT22;48747;50.250;18.848;2023-06-04T10:35:33;22.80;44.00
37356;DHT22;48747;50.250;18.848;2023-06-04T10:37:39;22.90;46.80
37356;DHT22;48747;50.250;18.848;2023-06-04T10:39:54;22.90;45.50
37356;DHT22;48747;50.250;18.848;2023-06-04T10:42:05;22.90;42.90
37356;DHT22;48747;50.250;18.848;2023-06-04T10:44:08;23.00;43.50
37356;DHT22;48747;50.250;18.848;2023-06-04T10:46:13;23.00;43.90
37356;DHT22;48747;50.250;18.848;2023-06-04T10:48:17;23.00;42.80
37356;DHT22;48747;50.250;18.848;2023-06-04T10:50:20;22.90;43.60
37356;DHT22;48747;50.250;18.848;2023-06-04T10:52:23;22.70;44.30
37356;DHT22;48747;50.250;18.848;2023-06-04T10:54:26;22.90;45.30
37356;DHT22;48747;50.250;18.848;2023-06-04T10:56:34;22.90;44.30
37356;DHT22;48747;50.250;18.848;2023-06-04T10:58:39;22.90;44.80
37356;DHT22;48747;50.250;18.848;2023-06-04T11:00:44;23.00;46.90
37356;DHT22;48747;50.250;18.848;2023-06-04T11:02:57;23.10;44.80
37356;DHT22;48747;50.250;18.848;2023-06-04T11:05:05;23.00;44.80
37356;DHT22;48747;50.250;18.848;2023-06-04T11:07:13;23.00;42.60
37356;DHT22;48747;50.250;18.848;2023-06-04T11:09:18;22.80;43.60
37356;DHT22;48747;50.250;18.848;2023-06-04T11:11:21;22.90;44.80
37356;DHT22;48747;50.250;18.848;2023-06-04T11:13:25;23.10;45.10
37356;DHT22;48747;50.250;18.848;2023-06-04T11:15:41;23.20;43.60
37356;DHT22;48747;50.250;18.848;2023-06-04T11:18:12;23.10;42.80
37356;DHT22;48747;50.250;18.848;2023-06-04T11:20:15;23.10;42.80
37356;DHT22;48747;50.250;18.848;2023-06-04T11:22:12;22.90;43.10
37356;DHT22;48747;50.250;18.848;2023-06-04T11:24:17;22.90;43.10
37356;DHT22;48747;50.250;18.848;2023-06-04T11:26:20;22.90;44.10
37356;DHT22;48747;50.250;18.848;2023-06-04T11:28:25;22.90;44.70
37356;DHT22;48747;50.250;18.848;2023-06-04T11:30:28;23.10;44.80
37356;DHT22;48747;50.250;18.848;2023-06-04T11:32:37;23.40;46.10
37356;DHT22;48747;50.250;18.848;2023-06-04T11:34:43;23.50;44.10
37356;DHT22;48747;50.250;18.848;2023-06-04T11:36:42;23.60;42.30
37356;DHT22;48747;50.250;18.848;2023-06-04T11:39:02;23.40;42.80
37356;DHT22;48747;50.250;18.848;2023-06-04T11:41:07;23.30;42.00
37356;DHT22;48747;50.250;18.848;2023-06-04T11:43:11;23.30;43.70
37356;DHT22;48747;50.250;18.848;2023-06-04T11:45:16;23.30;41.80
37356;DHT22;48747;50.250;18.848;2023-06-04T11:47:23;23.20;42.70
37356;DHT22;48747;50.250;18.848;2023-06-04T11:49:30;23.20;43.20
37356;DHT22;48747;50.250;18.848;2023-06-04T11:51:33;23.20;44.40
37356;DHT22;48747;50.250;18.848;2023-06-04T11:53:38;23.40;43.10
37356;DHT22;48747;50.250;18.848;2023-06-04T11:55:42;23.50;44.20
37356;DHT22;48747;50.250;18.848;2023-06-04T11:57:46;23.80;44.30
37356;DHT22;48747;50.250;18.848;2023-06-04T11:59:49;24.00;43.20
37356;DHT22;48747;50.250;18.848;2023-06-04T12:01:53;24.20;43.10
37356;DHT22;48747;50.250;18.848;2023-06-04T12:03:56;24.30;41.60
37356;DHT22;48747;50.250;18.848;2023-06-04T12:06:14;24.40;41.80
37356;DHT22;48747;50.250;18.848;2023-06-04T12:08:22;24.50;42.30
37356;DHT22;48747;50.250;18.848;2023-06-04T12:10:26;24.60;41.10
37356;DHT22;48747;50.250;18.848;2023-06-04T12:12:30;24.60;41.70
37356;DHT22;48747;50.250;18.848;2023-06-04T12:14:37;24.70;41.60
37356;DHT22;48747;50.250;18.848;2023-06-04T12:16:38;24.60;41.50
37356;DHT22;48747;50.250;18.848;2023-06-04T12:18:43;24.70;42.90
37356;DHT22;48747;50.250;18.848;2023-06-04T12:20:46;24.80;40.00
37356;DHT22;48747;50.250;18.848;2023-06-04T12:22:51;24.90;41.40
37356;DHT22;48747;50.250;18.848;2023-06-04T12:24:56;24.80;40.30
37356;DHT22;48747;50.250;18.848;2023-06-04T12:27:07;24.60;40.30
37356;DHT22;48747;50.250;18.848;2023-06-04T12:29:15;24.40;40.10
37356;DHT22;48747;50.250;18.848;2023-06-04T12:31:19;24.30;41.70
37356;DHT22;48747;50.250;18.848;2023-06-04T12:33:22;24.30;40.40
37356;DHT22;48747;50.250;18.848;2023-06-04T12:35:25;24.50;44.00
37356;DHT22;48747;50.250;18.848;2023-06-04T12:37:28;24.80;40.50
37356;DHT22;48747;50.250;18.848;2023-06-04T12:39:37;24.90;40.00
37356;DHT22;48747;50.250;18.848;2023-06-04T12:41:36;25.10;39.10
37356;DHT22;48747;50.250;18.848;2023-06-04T12:43:39;25.10;39.40
37356;DHT22;48747;50.250;18.848;2023-06-04T12:45:44;25.10;38.50
37356;DHT22;48747;50.250;18.848;2023-06-04T12:47:47;25.00;38.90
37356;DHT22;48747;50.250;18.848;2023-06-04T12:49:50;25.00;38.80
37356;DHT22;48747;50.250;18.848;2023-06-04T12:51:54;24.90;39.70
37356;DHT22;48747;50.250;18.848;2023-06-04T12:53:58;25.00;40.80
37356;DHT22;48747;50.250;18.848;2023-06-04T12:56:01;25.10;39.40